San Acacia, New Mexico
Current Conditions -  °F | °C
As of 5:35 AM on Monday 24 Nov 2014 (Local Time) from KONM Reporting Station
Clear Clear  
Wind Chill: 24°   Ceiling: Unl
Heat Index: 31°   Visibility: 10mi
Dew Point:   Wind: 8mph
Humidity: 29%   Direction: 60°ENE
Pressure: 30.13"   Gusts: NA
Location:  34.26°N, 106.9°W
Report Text: KONM 241235Z AUTO 06007KT 10SM CLR 00/M16 A3013 RMK AO2 T10051165
Loading
Personal Weather Stations






























Interactive Weather Map New forecast layout! Learn more

10-Day Weather Forecast

Advertisements
Track Severe Weather on mobile